Terminal Aerodrome Forecast
Issued by NWS Houston/Galveston, TX

Home | Current Version | Previous Version | Text Only | Print | Product List | Glossary On
Versions: 1 2 3 4 5 6 7 8 9 10 11 12 13 14 15
000
FTUS44 KHGX 180214 AAA
TAFCLL
TAF AMD
KCLL 180214Z 1802/1824 08004KT P6SM SCT020 BKN050
      TEMPO 1802/1804 5SM -RADZ BKN035
     FM180600 08004KT 5SM BR SCT015 BKN040
     FM181500 03006KT P6SM SCT040=

USA.gov is the U.S. government's official web portal to all federal, state and local government web resources and services.